createdAt,value
2018-01-24T00:00:26.867Z,41.46
2018-01-24T00:00:58.898Z,41.55
2018-01-24T00:01:30.895Z,41.46
2018-01-24T00:02:02.889Z,41.36
2018-01-24T00:02:34.886Z,41.46
2018-01-24T00:03:07.014Z,41.55
2018-01-24T00:03:40.116Z,41.65
2018-01-24T00:04:12.204Z,41.75
2018-01-24T00:04:44.246Z,41.75
2018-01-24T00:05:16.272Z,41.55
2018-01-24T00:05:48.307Z,41.55
2018-01-24T00:06:20.304Z,41.65
2018-01-24T00:06:52.330Z,41.46
2018-01-24T00:07:24.341Z,41.65
2018-01-24T00:07:56.368Z,41.65
2018-01-24T00:08:28.386Z,41.65
2018-01-24T00:09:00.536Z,41.65
2018-01-24T00:09:32.595Z,41.55
2018-01-24T00:10:04.563Z,41.65
2018-01-24T00:10:36.590Z,41.65
2018-01-24T00:11:08.631Z,41.55
2018-01-24T00:11:40.681Z,41.55
2018-01-24T00:12:12.732Z,41.65
2018-01-24T00:12:44.727Z,41.55
2018-01-24T00:13:16.711Z,41.55
2018-01-24T00:13:48.713Z,41.65
2018-01-24T00:14:20.651Z,41.55
2018-01-24T00:14:52.696Z,41.55
2018-01-24T00:15:24.685Z,41.65
2018-01-24T00:15:56.669Z,41.55
2018-01-24T00:16:28.701Z,41.55
2018-01-24T00:17:00.791Z,41.55
2018-01-24T00:17:32.786Z,42.13
2018-01-24T00:18:04.824Z,41.55
2018-01-24T00:18:36.816Z,42.13
2018-01-24T00:19:08.798Z,42.03
2018-01-24T00:19:40.850Z,41.55
2018-01-24T00:20:12.805Z,41.55
2018-01-24T00:20:44.793Z,41.84
2018-01-24T00:21:16.803Z,41.65
2018-01-24T00:21:48.796Z,41.84
2018-01-24T00:22:20.829Z,41.65
2018-01-24T00:22:52.903Z,41.65
2018-01-24T00:23:24.904Z,41.75
2018-01-24T00:23:56.891Z,41.75
2018-01-24T00:24:28.909Z,41.84
2018-01-24T00:25:00.916Z,41.65
2018-01-24T00:25:32.926Z,41.75
2018-01-24T00:26:05.021Z,41.75
2018-01-24T00:26:37.018Z,41.75
2018-01-24T00:27:08.995Z,41.75
2018-01-24T00:27:41.049Z,41.75
2018-01-24T00:28:13.146Z,41.65
2018-01-24T00:28:45.127Z,41.65
2018-01-24T00:29:17.207Z,41.84
2018-01-24T00:29:49.194Z,41.65
2018-01-24T00:30:21.202Z,41.65
2018-01-24T00:30:53.245Z,42.13
2018-01-24T00:31:25.250Z,41.55
2018-01-24T00:31:57.239Z,41.65
2018-01-24T00:32:29.274Z,42.13
2018-01-24T00:33:01.231Z,41.55
2018-01-24T00:33:33.221Z,41.55
2018-01-24T00:34:05.260Z,41.46
2018-01-24T00:34:37.290Z,41.65
2018-01-24T00:35:09.304Z,41.84
2018-01-24T00:35:41.369Z,42.03
2018-01-24T00:36:14.320Z,42.03
2018-01-24T00:36:47.155Z,42.03
2018-01-24T00:37:19.159Z,41.55
2018-01-24T00:37:51.182Z,41.55
2018-01-24T00:38:23.246Z,41.55
2018-01-24T00:38:55.261Z,41.65
2018-01-24T00:39:27.265Z,41.65
2018-01-24T00:39:59.359Z,41.75
2018-01-24T00:40:31.302Z,41.84
2018-01-24T00:41:03.337Z,41.75
2018-01-24T00:41:35.343Z,41.94
2018-01-24T00:42:07.372Z,41.75
2018-01-24T00:42:39.381Z,41.55
2018-01-24T00:43:11.395Z,41.75
2018-01-24T00:43:43.395Z,41.94
2018-01-24T00:44:15.429Z,41.94
2018-01-24T00:44:47.407Z,41.65
2018-01-24T00:45:19.382Z,41.65
2018-01-24T00:45:52.129Z,41.65
2018-01-24T00:46:24.119Z,41.75
2018-01-24T00:46:56.110Z,41.65
2018-01-24T00:47:28.166Z,41.84
2018-01-24T00:48:00.158Z,41.84
2018-01-24T00:48:32.154Z,41.65
2018-01-24T00:49:04.182Z,41.55
2018-01-24T00:49:36.203Z,42.03
2018-01-24T00:50:08.228Z,41.94
2018-01-24T00:50:40.286Z,42.03
2018-01-24T00:51:12.281Z,41.84
2018-01-24T00:51:44.313Z,41.65
2018-01-24T00:52:16.327Z,41.75
2018-01-24T00:52:48.327Z,41.75
2018-01-24T00:53:20.328Z,41.75
2018-01-24T00:53:53.156Z,41.84
2018-01-24T00:54:25.150Z,41.75
2018-01-24T00:54:57.227Z,41.84
2018-01-24T00:55:30.020Z,41.84
2018-01-24T00:56:02.052Z,41.84
2018-01-24T00:56:34.171Z,41.65
2018-01-24T00:57:06.164Z,41.84
2018-01-24T00:57:38.213Z,41.75
2018-01-24T00:58:10.240Z,41.75
2018-01-24T00:58:42.218Z,41.65
2018-01-24T00:59:14.331Z,41.75
2018-01-24T00:59:46.446Z,41.84
2018-01-24T01:00:18.504Z,41.75
2018-01-24T01:00:50.487Z,41.65
2018-01-24T01:01:22.453Z,41.65
2018-01-24T01:01:54.494Z,41.94
2018-01-24T01:02:26.535Z,41.84
2018-01-24T01:02:58.541Z,41.75
2018-01-24T01:03:30.498Z,41.84
2018-01-24T01:04:02.485Z,42.03
2018-01-24T01:04:35.050Z,41.94
2018-01-24T01:05:07.060Z,42.03
2018-01-24T01:05:39.016Z,41.94
2018-01-24T01:06:11.053Z,42.23
2018-01-24T01:06:43.101Z,41.94
2018-01-24T01:07:15.075Z,41.75
2018-01-24T01:07:47.191Z,42.03
2018-01-24T01:08:19.228Z,41.94
2018-01-24T01:08:51.259Z,41.75
2018-01-24T01:09:23.332Z,41.94
2018-01-24T01:09:55.401Z,41.75
2018-01-24T01:10:27.431Z,41.94
2018-01-24T01:10:59.453Z,41.84
2018-01-24T01:11:31.450Z,42.13
2018-01-24T01:12:03.455Z,42.03
2018-01-24T01:12:35.452Z,41.94
2018-01-24T01:13:07.434Z,42.03
2018-01-24T01:13:39.471Z,41.94
2018-01-24T01:14:11.451Z,41.94
2018-01-24T01:14:43.431Z,41.94
2018-01-24T01:15:15.467Z,41.94
2018-01-24T01:15:47.479Z,41.94
2018-01-24T01:16:19.497Z,41.94
2018-01-24T01:16:51.527Z,41.94
2018-01-24T01:17:23.550Z,42.13
2018-01-24T01:17:55.531Z,41.94
2018-01-24T01:18:27.519Z,41.94
2018-01-24T01:18:59.643Z,42.13
2018-01-24T01:19:31.659Z,41.94
2018-01-24T01:20:03.657Z,41.94
2018-01-24T01:20:35.673Z,42.03
2018-01-24T01:21:07.736Z,42.03
2018-01-24T01:21:39.730Z,42.13
2018-01-24T01:22:11.730Z,42.03
2018-01-24T01:22:43.740Z,42.03
2018-01-24T01:23:15.738Z,42.03
2018-01-24T01:23:47.780Z,42.13
2018-01-24T01:24:19.795Z,42.23
2018-01-24T01:24:51.790Z,42.23
2018-01-24T01:25:24.560Z,42.13
2018-01-24T01:25:56.555Z,42.03
2018-01-24T01:26:28.612Z,42.13
2018-01-24T01:27:00.646Z,42.13
2018-01-24T01:27:32.649Z,42.03
2018-01-24T01:28:05.539Z,42.13
2018-01-24T01:28:38.459Z,42.13
2018-01-24T01:29:10.499Z,42.13
2018-01-24T01:29:42.487Z,42.13
2018-01-24T01:30:14.409Z,42.03
2018-01-24T01:30:46.441Z,42.13
2018-01-24T01:31:18.450Z,42.03
2018-01-24T01:31:50.505Z,42.13
2018-01-24T01:32:22.507Z,42.13
2018-01-24T01:32:54.543Z,42.03
2018-01-24T01:33:26.547Z,42.03
2018-01-24T01:33:58.562Z,42.03
2018-01-24T01:34:30.615Z,42.13
2018-01-24T01:35:02.608Z,42.13
2018-01-24T01:35:34.608Z,42.03
2018-01-24T01:36:06.635Z,42.13
2018-01-24T01:36:38.652Z,42.23
2018-01-24T01:37:10.678Z,42.23
2018-01-24T01:37:42.703Z,42.23
2018-01-24T01:38:14.821Z,42.23
2018-01-24T01:38:46.818Z,42.23
2018-01-24T01:39:18.820Z,42.23
2018-01-24T01:39:50.846Z,42.23
2018-01-24T01:40:22.829Z,42.23
2018-01-24T01:40:54.802Z,42.23
2018-01-24T01:41:26.821Z,42.23
2018-01-24T01:41:58.799Z,42.13
2018-01-24T01:42:30.770Z,42.13
2018-01-24T01:43:02.755Z,42.15
2018-01-24T01:43:34.751Z,42.23
2018-01-24T01:44:07.446Z,42.23
2018-01-24T01:44:39.473Z,42.35
2018-01-24T01:45:11.498Z,42.23
2018-01-24T01:45:43.507Z,42.15
2018-01-24T01:46:15.528Z,42.23
2018-01-24T01:46:47.537Z,42.23
2018-01-24T01:47:19.632Z,42.25
2018-01-24T01:47:51.640Z,42.25
2018-01-24T01:48:23.615Z,42.13
2018-01-24T01:48:55.641Z,42.13
2018-01-24T01:49:27.677Z,42.13
2018-01-24T01:49:59.674Z,42.23
2018-01-24T01:50:31.662Z,42.25
2018-01-24T01:51:03.652Z,42.32
2018-01-24T01:51:35.679Z,42.25
2018-01-24T01:52:07.707Z,42.23
2018-01-24T01:52:39.705Z,42.35
2018-01-24T01:53:11.691Z,42.35
2018-01-24T01:53:43.672Z,42.35
2018-01-24T01:54:15.689Z,42.23
2018-01-24T01:54:47.631Z,42.25
2018-01-24T01:55:19.679Z,42.32
2018-01-24T01:55:51.710Z,42.25
2018-01-24T01:56:23.877Z,42.32
2018-01-24T01:56:55.912Z,42.44
2018-01-24T01:57:27.905Z,42.15
2018-01-24T01:57:59.887Z,42.32
2018-01-24T01:58:31.848Z,42.32
2018-01-24T01:59:03.838Z,42.54
2018-01-24T01:59:35.877Z,42.13
2018-01-24T02:00:07.930Z,42.42
2018-01-24T02:00:39.962Z,42.23
2018-01-24T02:01:11.977Z,42.52
2018-01-24T02:01:44.017Z,42.44
2018-01-24T02:02:16.016Z,42.52
2018-01-24T02:02:48.024Z,42.35
2018-01-24T02:03:20.009Z,42.42
2018-01-24T02:03:52.030Z,42.35
2018-01-24T02:04:24.064Z,42.23
2018-01-24T02:04:56.116Z,42.35
2018-01-24T02:05:28.128Z,42.35
2018-01-24T02:06:00.122Z,42.35
2018-01-24T02:06:32.135Z,42.44
2018-01-24T02:07:04.140Z,42.63
2018-01-24T02:07:36.222Z,42.54
2018-01-24T02:08:08.206Z,42.61
2018-01-24T02:08:40.243Z,42.54
2018-01-24T02:09:12.264Z,42.63
2018-01-24T02:09:45.174Z,42.54
2018-01-24T02:10:17.203Z,42.44
2018-01-24T02:10:49.204Z,42.44
2018-01-24T02:11:21.198Z,42.73
2018-01-24T02:11:54.865Z,42.73
2018-01-24T02:12:26.856Z,42.35
2018-01-24T02:12:58.886Z,42.44
2018-01-24T02:13:30.848Z,42.35
2018-01-24T02:14:02.879Z,42.44
2018-01-24T02:14:34.900Z,42.44
2018-01-24T02:15:06.959Z,42.32
2018-01-24T02:15:38.953Z,42.44
2018-01-24T02:16:10.950Z,42.35
2018-01-24T02:16:42.970Z,42.44
2018-01-24T02:17:14.976Z,42.25
2018-01-24T02:17:46.967Z,42.52
2018-01-24T02:18:18.971Z,42.35
2018-01-24T02:18:51.135Z,42.32
2018-01-24T02:19:23.145Z,42.35
2018-01-24T02:19:56.894Z,42.63
2018-01-24T02:20:28.896Z,42.42
2018-01-24T02:21:00.897Z,42.25
2018-01-24T02:21:32.923Z,42.32
2018-01-24T02:22:05.567Z,42.42
2018-01-24T02:22:37.602Z,42.25
2018-01-24T02:23:10.500Z,42.35
2018-01-24T02:23:42.506Z,42.25
2018-01-24T02:24:14.548Z,42.44
2018-01-24T02:24:46.520Z,42.35
2018-01-24T02:25:18.552Z,42.35
2018-01-24T02:25:50.575Z,42.54
2018-01-24T02:26:22.577Z,42.54
2018-01-24T02:26:55.168Z,42.61
2018-01-24T02:27:27.153Z,42.25
2018-01-24T02:27:59.176Z,42.61
2018-01-24T02:28:31.186Z,42.44
2018-01-24T02:29:03.206Z,42.35
2018-01-24T02:29:35.184Z,42.63
2018-01-24T02:30:07.226Z,42.44
2018-01-24T02:30:39.323Z,42.63
2018-01-24T02:31:11.362Z,42.54
2018-01-24T02:31:43.414Z,42.35
2018-01-24T02:32:15.392Z,42.44
2018-01-24T02:32:48.113Z,42.44
2018-01-24T02:33:20.170Z,42.35
2018-01-24T02:33:52.151Z,42.54
2018-01-24T02:34:24.173Z,42.54
2018-01-24T02:34:56.155Z,42.54
2018-01-24T02:35:28.139Z,42.54
2018-01-24T02:36:00.200Z,42.42
2018-01-24T02:36:32.188Z,42.54
2018-01-24T02:37:04.193Z,42.54
2018-01-24T02:37:36.694Z,42.54
2018-01-24T02:38:08.660Z,42.54
2018-01-24T02:38:40.625Z,42.63
2018-01-24T02:39:12.659Z,42.54
2018-01-24T02:39:44.668Z,42.52
2018-01-24T02:40:16.709Z,42.61
2018-01-24T02:40:48.739Z,42.44
2018-01-24T02:41:20.734Z,42.52
2018-01-24T02:41:52.746Z,42.54
2018-01-24T02:42:24.738Z,42.54
2018-01-24T02:42:56.753Z,42.54
2018-01-24T02:43:28.728Z,42.54
2018-01-24T02:44:00.751Z,42.54
2018-01-24T02:44:32.791Z,42.54
2018-01-24T02:45:04.856Z,42.52
2018-01-24T02:45:36.880Z,42.73
2018-01-24T02:46:08.895Z,42.73
2018-01-24T02:46:40.878Z,42.54
2018-01-24T02:47:13.027Z,42.63
2018-01-24T02:47:45.993Z,42.83
2018-01-24T02:48:17.967Z,42.73
2018-01-24T02:48:49.999Z,42.73
2018-01-24T02:49:21.994Z,42.73
2018-01-24T02:49:54.014Z,42.54
2018-01-24T02:50:26.039Z,42.61
2018-01-24T02:50:58.059Z,42.73
2018-01-24T02:51:30.028Z,42.73
2018-01-24T02:52:02.055Z,42.54
2018-01-24T02:52:34.094Z,42.63
2018-01-24T02:53:06.138Z,42.63
2018-01-24T02:53:38.139Z,42.73
2018-01-24T02:54:10.169Z,42.73
2018-01-24T02:54:42.189Z,42.73
2018-01-24T02:55:14.197Z,42.73
2018-01-24T02:55:46.198Z,42.71
2018-01-24T02:56:18.283Z,42.73
2018-01-24T02:56:50.251Z,42.73
2018-01-24T02:57:22.291Z,42.83
2018-01-24T02:57:54.265Z,42.73
2018-01-24T02:58:26.237Z,42.63
2018-01-24T02:58:58.384Z,42.73
2018-01-24T02:59:31.128Z,42.73
2018-01-24T03:00:03.150Z,42.73
2018-01-24T03:00:35.152Z,42.73
2018-01-24T03:01:07.188Z,42.71
2018-01-24T03:01:39.248Z,42.83
2018-01-24T03:02:11.348Z,42.73
2018-01-24T03:02:44.020Z,42.83
2018-01-24T03:03:16.028Z,42.73
2018-01-24T03:03:48.038Z,42.93
2018-01-24T03:04:20.110Z,42.8
2018-01-24T03:04:52.085Z,42.83
2018-01-24T03:05:24.137Z,43.02
2018-01-24T03:05:56.130Z,42.73
2018-01-24T03:06:28.115Z,42.9
2018-01-24T03:07:00.178Z,42.93
2018-01-24T03:07:32.178Z,42.93
2018-01-24T03:08:04.180Z,42.93
2018-01-24T03:08:36.194Z,42.83
2018-01-24T03:09:08.216Z,43.12
2018-01-24T03:09:40.217Z,42.83
2018-01-24T03:10:12.282Z,42.83
2018-01-24T03:10:44.312Z,42.93
2018-01-24T03:11:16.329Z,42.83
2018-01-24T03:11:48.344Z,42.54
2018-01-24T03:12:20.351Z,42.63
2018-01-24T03:12:52.368Z,42.83
2018-01-24T03:13:24.405Z,42.73
2018-01-24T03:13:56.412Z,42.73
2018-01-24T03:14:28.420Z,42.63
2018-01-24T03:15:00.444Z,43.21
2018-01-24T03:15:32.425Z,42.61
2018-01-24T03:16:04.426Z,43.21
2018-01-24T03:16:36.424Z,43
2018-01-24T03:17:08.471Z,43.21
2018-01-24T03:17:41.401Z,42.9
2018-01-24T03:18:13.929Z,43.1
2018-01-24T03:18:45.902Z,43.02
2018-01-24T03:19:17.929Z,42.9
2018-01-24T03:19:49.902Z,42.9
2018-01-24T03:20:21.880Z,42.93
2018-01-24T03:20:53.887Z,42.93
2018-01-24T03:21:25.890Z,42.9
2018-01-24T03:21:57.891Z,42.9
2018-01-24T03:22:29.933Z,42.83
2018-01-24T03:23:01.966Z,42.9
2018-01-24T03:23:33.966Z,42.93
2018-01-24T03:24:06.821Z,42.93
2018-01-24T03:24:38.838Z,42.73
2018-01-24T03:25:10.959Z,42.83
2018-01-24T03:25:42.923Z,42.83
2018-01-24T03:26:14.935Z,42.93
2018-01-24T03:26:46.898Z,43
2018-01-24T03:27:18.898Z,43.02
2018-01-24T03:27:50.897Z,42.83
2018-01-24T03:28:22.903Z,42.93
2018-01-24T03:28:54.897Z,42.83
2018-01-24T03:29:27.546Z,43.02
2018-01-24T03:29:59.596Z,43.12
2018-01-24T03:30:31.624Z,42.93
2018-01-24T03:31:03.613Z,42.83
2018-01-24T03:31:35.643Z,43.02
2018-01-24T03:32:07.649Z,42.93
2018-01-24T03:32:39.676Z,42.93
2018-01-24T03:33:12.411Z,42.9
2018-01-24T03:33:45.244Z,42.93
2018-01-24T03:34:17.273Z,42.93
2018-01-24T03:34:50.142Z,43.21
2018-01-24T03:35:22.149Z,42.9
2018-01-24T03:35:54.166Z,43.21
2018-01-24T03:36:26.166Z,43.12
2018-01-24T03:36:58.197Z,43.1
2018-01-24T03:37:30.237Z,42.83
2018-01-24T03:38:02.264Z,43
2018-01-24T03:38:34.289Z,43
2018-01-24T03:39:06.398Z,43.02
2018-01-24T03:39:38.403Z,43.12
2018-01-24T03:40:10.410Z,43.12
2018-01-24T03:40:42.435Z,42.93
2018-01-24T03:41:14.472Z,43.21
2018-01-24T03:41:46.483Z,43.12
2018-01-24T03:42:18.583Z,43
2018-01-24T03:42:50.556Z,42.8
2018-01-24T03:43:22.567Z,43.12
2018-01-24T03:43:54.586Z,43
2018-01-24T03:44:27.224Z,43.02
2018-01-24T03:44:59.219Z,43
2018-01-24T03:45:31.222Z,43.12
2018-01-24T03:46:03.305Z,43.02
2018-01-24T03:46:36.244Z,43
2018-01-24T03:47:08.225Z,43
2018-01-24T03:47:40.220Z,42.93
2018-01-24T03:48:13.080Z,43
2018-01-24T03:48:45.155Z,43.02
2018-01-24T03:49:17.165Z,43.12
2018-01-24T03:49:49.197Z,43.02
2018-01-24T03:50:21.174Z,42.93
2018-01-24T03:50:53.237Z,43.02
2018-01-24T03:51:25.251Z,43.21
2018-01-24T03:51:57.298Z,43.19
2018-01-24T03:52:29.322Z,43.21
2018-01-24T03:53:01.357Z,43.41
2018-01-24T03:53:33.374Z,43.41
2018-01-24T03:54:05.403Z,43.41
2018-01-24T03:54:37.431Z,43.31
2018-01-24T03:55:09.440Z,43.12
2018-01-24T03:55:41.597Z,43.41
2018-01-24T03:56:13.628Z,43.38
2018-01-24T03:56:45.644Z,43.6
2018-01-24T03:57:17.611Z,43.41
2018-01-24T03:57:49.600Z,43.31
2018-01-24T03:58:21.626Z,43.31
2018-01-24T03:58:54.525Z,43.5
2018-01-24T03:59:26.546Z,43.1
2018-01-24T03:59:58.573Z,43.31
2018-01-24T04:00:30.573Z,43.12
2018-01-24T04:01:02.573Z,43.41
2018-01-24T04:01:34.688Z,43.31
2018-01-24T04:02:06.674Z,43.31
2018-01-24T04:02:38.660Z,43.41
2018-01-24T04:03:10.770Z,43.41
2018-01-24T04:03:42.781Z,43.5
2018-01-24T04:04:14.825Z,43.31
2018-01-24T04:04:46.836Z,43.5
2018-01-24T04:05:19.737Z,43.5
2018-01-24T04:05:51.751Z,43.31
2018-01-24T04:06:23.789Z,43.5
2018-01-24T04:06:55.904Z,43.5
2018-01-24T04:07:27.909Z,43.12
2018-01-24T04:08:00.009Z,43.5
2018-01-24T04:08:32.043Z,43.6
2018-01-24T04:09:04.039Z,43.31
2018-01-24T04:09:36.086Z,43.5
2018-01-24T04:10:08.106Z,43.31
2018-01-24T04:10:40.122Z,43.41
2018-01-24T04:11:12.160Z,43.21
2018-01-24T04:11:44.183Z,43.21
2018-01-24T04:12:16.185Z,43.21
2018-01-24T04:12:48.218Z,43.21
2018-01-24T04:13:20.237Z,43.6
2018-01-24T04:13:52.241Z,43.41
2018-01-24T04:14:24.238Z,43.6
2018-01-24T04:14:56.275Z,43.6
2018-01-24T04:15:28.743Z,43.41
2018-01-24T04:16:00.780Z,43.7
2018-01-24T04:16:32.775Z,43.21
2018-01-24T04:17:05.637Z,43.41
2018-01-24T04:17:37.655Z,43.41
2018-01-24T04:18:09.682Z,43.31
2018-01-24T04:18:41.676Z,43.41
2018-01-24T04:19:13.692Z,43.31
2018-01-24T04:19:45.682Z,43.31
2018-01-24T04:20:19.442Z,43.5
2018-01-24T04:20:51.936Z,43.5
2018-01-24T04:21:24.094Z,43.41
2018-01-24T04:21:56.099Z,43.31
2018-01-24T04:22:28.704Z,43.41
2018-01-24T04:23:01.441Z,43.31
2018-01-24T04:23:33.434Z,43.31
2018-01-24T04:24:05.476Z,43.31
2018-01-24T04:24:37.476Z,43.31
2018-01-24T04:25:09.464Z,43.31
2018-01-24T04:25:41.464Z,43.41
2018-01-24T04:26:13.458Z,43.41
2018-01-24T04:26:45.492Z,43.5
2018-01-24T04:27:17.525Z,43.41
2018-01-24T04:27:49.532Z,43.41
2018-01-24T04:28:21.542Z,43.31
2018-01-24T04:28:53.591Z,43.41
2018-01-24T04:29:25.597Z,43.41
2018-01-24T04:29:57.602Z,43.31
2018-01-24T04:30:30.440Z,43.31
2018-01-24T04:31:02.515Z,43.21
2018-01-24T04:31:34.531Z,43.5
2018-01-24T04:32:06.535Z,43.5
2018-01-24T04:32:38.536Z,43.21
2018-01-24T04:33:10.652Z,43.31
2018-01-24T04:33:42.633Z,43.6
2018-01-24T04:34:14.667Z,43.41
2018-01-24T04:34:46.694Z,43.6
2018-01-24T04:35:18.620Z,43.41
2018-01-24T04:35:50.653Z,43.6
2018-01-24T04:36:22.668Z,43.41
2018-01-24T04:36:54.693Z,43.6
2018-01-24T04:37:26.887Z,43.6
2018-01-24T04:37:58.890Z,43.41
2018-01-24T04:38:31.058Z,43.6
2018-01-24T04:39:03.078Z,43.79
2018-01-24T04:39:35.106Z,43.6
2018-01-24T04:40:07.115Z,43.31
2018-01-24T04:40:39.094Z,43.31
2018-01-24T04:41:11.076Z,43.6
2018-01-24T04:41:43.952Z,43.6
2018-01-24T04:42:15.935Z,43.6
2018-01-24T04:42:47.976Z,43.12
2018-01-24T04:43:19.999Z,43.6
2018-01-24T04:43:51.988Z,43.6
2018-01-24T04:44:24.026Z,43.31
2018-01-24T04:44:56.948Z,43.7
2018-01-24T04:45:29.701Z,43.5
2018-01-24T04:46:01.720Z,43.5
2018-01-24T04:46:34.573Z,43.5
2018-01-24T04:47:06.569Z,43.6
2018-01-24T04:47:38.689Z,43.5
2018-01-24T04:48:10.694Z,43.41
2018-01-24T04:48:43.554Z,43.5
2018-01-24T04:49:16.452Z,43.7
2018-01-24T04:49:48.462Z,43.5
2018-01-24T04:50:20.427Z,43.5
2018-01-24T04:50:52.471Z,43.5
2018-01-24T04:51:24.414Z,43.5
2018-01-24T04:51:56.368Z,43.5
2018-01-24T04:52:28.394Z,43.5
2018-01-24T04:53:00.372Z,43.7
2018-01-24T04:53:32.372Z,43.6
2018-01-24T04:54:04.568Z,43.79
2018-01-24T04:54:36.589Z,43.79
2018-01-24T04:55:08.585Z,43.7
2018-01-24T04:55:40.586Z,43.41
2018-01-24T04:56:13.164Z,43.7
2018-01-24T04:56:45.297Z,43.98
2018-01-24T04:57:17.277Z,43.31
2018-01-24T04:57:49.286Z,44.08
2018-01-24T04:58:21.346Z,43.89
2018-01-24T04:58:53.362Z,43.5
2018-01-24T04:59:25.363Z,44.08
2018-01-24T04:59:57.336Z,44.08
2018-01-24T05:00:29.413Z,43.79
2018-01-24T05:01:01.444Z,43.5
2018-01-24T05:01:33.580Z,43.79
2018-01-24T05:02:05.582Z,43.41
2018-01-24T05:02:37.598Z,43.79
2018-01-24T05:03:09.573Z,43.79
2018-01-24T05:03:41.675Z,43.79
2018-01-24T05:04:13.657Z,43.89
2018-01-24T05:04:45.715Z,43.89
2018-01-24T05:05:17.727Z,43.6
2018-01-24T05:05:49.703Z,43.79
2018-01-24T05:06:21.698Z,43.6
2018-01-24T05:06:53.675Z,43.5
2018-01-24T05:07:25.702Z,43.7
2018-01-24T05:07:58.652Z,43.89
2018-01-24T05:08:30.685Z,43.89
2018-01-24T05:09:02.725Z,43.7
2018-01-24T05:09:34.740Z,43.79
2018-01-24T05:10:06.749Z,43.7
2018-01-24T05:10:38.781Z,43.79
2018-01-24T05:11:10.794Z,43.7
2018-01-24T05:11:42.791Z,43.7
2018-01-24T05:12:14.845Z,43.79
2018-01-24T05:12:46.832Z,43.7
2018-01-24T05:13:18.863Z,43.79
2018-01-24T05:13:50.956Z,43.79
2018-01-24T05:14:22.987Z,43.7
2018-01-24T05:14:55.010Z,43.41
2018-01-24T05:15:27.037Z,43.79
2018-01-24T05:15:59.052Z,43.7
2018-01-24T05:16:31.065Z,43.79
2018-01-24T05:17:03.085Z,43.79
2018-01-24T05:17:35.172Z,43.7
2018-01-24T05:18:07.175Z,43.79
2018-01-24T05:18:39.434Z,43.7
2018-01-24T05:19:11.382Z,43.7
2018-01-24T05:19:43.437Z,43.79
2018-01-24T05:20:15.499Z,43.7
2018-01-24T05:20:47.482Z,43.89
2018-01-24T05:21:19.507Z,43.6
2018-01-24T05:21:51.545Z,43.79
2018-01-24T05:22:23.571Z,43.79
2018-01-24T05:22:55.572Z,43.7
2018-01-24T05:23:27.648Z,43.7
2018-01-24T05:23:59.656Z,43.5
2018-01-24T05:24:31.692Z,43.7
2018-01-24T05:25:03.706Z,43.89
2018-01-24T05:25:35.714Z,43.79
2018-01-24T05:26:07.748Z,43.79
2018-01-24T05:26:39.848Z,43.7
2018-01-24T05:27:11.870Z,43.7
2018-01-24T05:27:43.877Z,43.79
2018-01-24T05:28:15.882Z,43.89
2018-01-24T05:28:47.931Z,44.08
2018-01-24T05:29:19.915Z,43.79
2018-01-24T05:29:52.078Z,43.79
2018-01-24T05:30:24.111Z,43.79
2018-01-24T05:30:56.977Z,43.98
2018-01-24T05:31:29.098Z,43.98
2018-01-24T05:32:01.083Z,43.79
2018-01-24T05:32:33.116Z,43.89
2018-01-24T05:33:05.147Z,44.18
2018-01-24T05:33:37.191Z,43.98
2018-01-24T05:34:09.192Z,43.89
2018-01-24T05:34:41.190Z,43.89
2018-01-24T05:35:13.149Z,43.98
2018-01-24T05:35:45.133Z,43.5
2018-01-24T05:36:17.113Z,43.98
2018-01-24T05:36:49.106Z,43.6
2018-01-24T05:37:21.179Z,43.79
2018-01-24T05:37:53.192Z,43.98
2018-01-24T05:38:25.218Z,44.08
2018-01-24T05:38:57.240Z,43.89
2018-01-24T05:39:29.372Z,43.79
2018-01-24T05:40:01.401Z,43.89
2018-01-24T05:40:33.401Z,43.98
2018-01-24T05:41:06.368Z,43.89
2018-01-24T05:41:38.385Z,43.98
2018-01-24T05:42:10.440Z,43.89
2018-01-24T05:42:42.484Z,44.08
2018-01-24T05:43:14.482Z,43.98
2018-01-24T05:43:46.483Z,43.98
2018-01-24T05:44:18.602Z,44.18
2018-01-24T05:44:50.583Z,43.02
2018-01-24T05:45:22.583Z,44.18
2018-01-24T05:45:54.619Z,43.98
2018-01-24T05:46:26.620Z,44.18
2018-01-24T05:46:58.635Z,44.18
2018-01-24T05:47:31.200Z,44.08
2018-01-24T05:48:03.329Z,44.27
2018-01-24T05:48:35.348Z,44.08
2018-01-24T05:49:07.360Z,43.7
2018-01-24T05:49:39.454Z,44.18
2018-01-24T05:50:11.496Z,44.27
2018-01-24T05:50:43.514Z,44.08
2018-01-24T05:51:15.499Z,44.27
2018-01-24T05:51:47.539Z,44.08
2018-01-24T05:52:19.601Z,44.18
2018-01-24T05:52:51.578Z,44.18
2018-01-24T05:53:23.633Z,43.98
2018-01-24T05:53:55.618Z,43.98
2018-01-24T05:54:27.668Z,44.08
2018-01-24T05:55:00.410Z,44.08
2018-01-24T05:55:32.419Z,44.18
2018-01-24T05:56:04.403Z,44.18
2018-01-24T05:56:36.402Z,44.08
2018-01-24T05:57:08.468Z,44.18
2018-01-24T05:57:40.471Z,44.18
2018-01-24T05:58:12.474Z,43.98
2018-01-24T05:58:44.456Z,44.18
2018-01-24T05:59:16.497Z,44.18
2018-01-24T05:59:48.501Z,43.98
2018-01-24T06:00:20.542Z,44.08
2018-01-24T06:00:52.581Z,43.98
2018-01-24T06:01:24.581Z,44.18
2018-01-24T06:01:56.628Z,44.08
2018-01-24T06:02:28.645Z,44.08
2018-01-24T06:03:00.654Z,43.98
2018-01-24T06:03:32.651Z,44.18
2018-01-24T06:04:04.658Z,44.08
2018-01-24T06:04:36.692Z,44.08
2018-01-24T06:05:08.675Z,44.18
2018-01-24T06:05:41.341Z,43.98
2018-01-24T06:06:13.380Z,44.08
2018-01-24T06:06:45.503Z,44.18
2018-01-24T06:07:17.489Z,43.98
2018-01-24T06:07:49.495Z,43.98
2018-01-24T06:08:21.488Z,44.37
2018-01-24T06:08:53.575Z,44.08
2018-01-24T06:09:25.578Z,43.98
2018-01-24T06:09:57.580Z,43.98
2018-01-24T06:10:29.656Z,44.37
2018-01-24T06:11:01.676Z,44.37
2018-01-24T06:11:33.711Z,43.98
2018-01-24T06:12:05.820Z,44.18
2018-01-24T06:12:37.794Z,44.18
2018-01-24T06:13:09.794Z,43.79
2018-01-24T06:13:41.833Z,44.37
2018-01-24T06:14:13.822Z,43.79
2018-01-24T06:14:45.795Z,43.79
2018-01-24T06:15:17.781Z,43.89
2018-01-24T06:15:49.823Z,44.37
2018-01-24T06:16:21.944Z,44.27
2018-01-24T06:16:53.970Z,44.27
2018-01-24T06:17:25.957Z,44.27
2018-01-24T06:17:58.013Z,44.27
2018-01-24T06:18:30.024Z,44.18
2018-01-24T06:19:02.024Z,44.18
2018-01-24T06:19:34.054Z,43.89
2018-01-24T06:20:06.069Z,44.18
2018-01-24T06:20:38.093Z,44.27
2018-01-24T06:21:10.178Z,44.37
2018-01-24T06:21:42.228Z,44.37
2018-01-24T06:22:14.209Z,44.37
2018-01-24T06:22:46.202Z,44.27
2018-01-24T06:23:18.231Z,44.27
2018-01-24T06:23:50.244Z,44.27
2018-01-24T06:24:22.408Z,44.27
2018-01-24T06:24:54.547Z,44.27
2018-01-24T06:25:27.338Z,44.18
2018-01-24T06:25:59.333Z,44.27
2018-01-24T06:26:31.322Z,44.37
2018-01-24T06:27:03.361Z,44.27
2018-01-24T06:27:35.386Z,44.27
2018-01-24T06:28:07.501Z,44.27
2018-01-24T06:28:39.496Z,44.37
2018-01-24T06:29:11.488Z,44.37
2018-01-24T06:29:43.665Z,44.08
2018-01-24T06:30:15.739Z,44.27
2018-01-24T06:30:47.791Z,44.27
2018-01-24T06:31:19.814Z,44.27
2018-01-24T06:31:51.859Z,44.27
2018-01-24T06:32:23.843Z,44.46
2018-01-24T06:32:55.887Z,44.27
2018-01-24T06:33:27.964Z,44.46
2018-01-24T06:33:59.976Z,44.37
2018-01-24T06:34:31.958Z,44.56
2018-01-24T06:35:03.958Z,44.18
2018-01-24T06:35:35.933Z,44.56
2018-01-24T06:36:07.970Z,44.18
2018-01-24T06:36:40.084Z,44.46
2018-01-24T06:37:12.094Z,44.56
2018-01-24T06:37:44.101Z,44.56
2018-01-24T06:38:16.220Z,44.27
2018-01-24T06:38:48.244Z,44.27
2018-01-24T06:39:20.251Z,44.56
2018-01-24T06:39:52.243Z,44.37
2018-01-24T06:40:24.309Z,44.56
2018-01-24T06:40:56.299Z,44.56
2018-01-24T06:41:28.363Z,44.56
2018-01-24T06:42:00.374Z,44.56
2018-01-24T06:42:32.391Z,44.46
2018-01-24T06:43:04.413Z,44.56
2018-01-24T06:43:36.475Z,44.46
2018-01-24T06:44:08.512Z,44.46
2018-01-24T06:44:40.513Z,44.56
2018-01-24T06:45:12.470Z,44.46
2018-01-24T06:45:44.467Z,44.56
2018-01-24T06:46:16.454Z,44.46
2018-01-24T06:46:48.468Z,44.27
2018-01-24T06:47:20.465Z,44.46
2018-01-24T06:47:52.552Z,44.46
2018-01-24T06:48:24.574Z,44.37
2018-01-24T06:48:56.557Z,44.37
2018-01-24T06:49:28.740Z,44.46
2018-01-24T06:50:00.848Z,44.46
2018-01-24T06:50:32.868Z,44.56
2018-01-24T06:51:04.837Z,44.37
2018-01-24T06:51:36.983Z,44.46
2018-01-24T06:52:09.013Z,44.46
2018-01-24T06:52:41.004Z,44.27
2018-01-24T06:53:13.009Z,44.46
2018-01-24T06:53:45.060Z,44.46
2018-01-24T06:54:17.047Z,44.46
2018-01-24T06:54:49.060Z,44.66
2018-01-24T06:55:21.075Z,44.56